Techny, Illinois
Current Conditions -  °F | °C
As of 11:52 AM on Monday 22 Dec 2014 (Local Time) from KPWK Reporting Station
Light Rain Light Rain  
Wind Chill: 30°   Ceiling: 3200
Heat Index: 35°   Visibility: 3mi
Dew Point: 31°   Wind: 6mph
Humidity: 85%   Direction: 120°ESE
Pressure: 29.83"   Gusts: NA
Location:  42.11°N, 87.83°W
Report Text: KPWK 221752Z 12005KT 3SM -RA BR BKN032 OVC038 02/M01 A2983 RMK AO2 UPB07E14RAB14SNB06E07 SLP107 P0000 60000 T00171006 10022 20000 58028
Loading
Personal Weather Stations






























Interactive Weather Map New forecast layout! Learn more

10-Day Weather Forecast

Advertisements
Track Severe Weather on mobile